Tramping Lake, Canada
Current Conditions -  °F | °C
As of 11:00 PM on Monday 26 Jan 2015 (Local Time) from CYKY Reporting Station
Broken Clouds Broken Clouds  
Wind Chill: 23°   Ceiling: 24000
Heat Index: 28°   Visibility: 15mi
Dew Point: 27°   Wind: 5mph
Humidity: 93%   Direction: 50°NE
Pressure: 29.76"   Gusts: NA
Location:  52.13°N, 108.95°W
Report Text: CYKY 270500Z 05004KT 050V130 15SM SCT040 BKN240 M02/M03 A2976 RMK SC4CI3 SLP107
Loading
Personal Weather Stations






























Interactive Weather Map New forecast layout! Learn more

10-Day Weather Forecast

Advertisements
Track Severe Weather on mobile